Portada
METAR-TAF:

METAR-TAF

Aeroports :

Aşgabat, Turkmenistan

latitud: 37-59N, longitud: 058-22E, altitud: 211 m

Observació

L'informe es va fer fa 1 hora i 2 minuts, a les 08:00 UTC
Vent 4 kt del Est/Nord-Est, variant entre Nord i Est/Sud-Est
Temperatura 14°C
Humitat 28%
Pressió 1026 hPa
Visibilitat 10 km o més

METAR: UTAA 120800Z 06004KT 350V110 9999 NSC 14/M04 Q1026 R88/70D NOSIG

Hora: 14:02 (09:02 UTC)

Pronòstic

L'informe es va fer fa 4 hores i 15 minuts, a les 04:47 UTC
Pronòstic vàlid del 12 a les 06 UTC al 13 a les 06 UTC
Vent 16 kt del Est/Sud-Est
Visibilitat: 6000 m
Núvols disperses a una alçada de 10000 ft
Temporalment
l' 12 a les 06 UTC al 12 a les 14 UTC
Vent 14 kt del Est/Nord-Est
Evolucionant progressivament
l' 12 a les 16 UTC al 12 a les 18 UTC
Vent 12 kt del Sud/Sud-Est

TAF: UTAA 120447Z 1206/1306 12016KT 6000 SCT100 TEMPO 1206/1214 06014KT BECMG 1216/1218 16012KT

Observacions i pronòstics meteorològics de més de 4000 aeroports (METAR i TAF).

Les estacions disponibles són els punts grocs i vermells al mapa.

Posi el ratolí al punt desitjat per veure el nom de l'estació.

Feu clic per veure les observacions i els pronòstics meteorològics.

Per canviar el mapa: feu clic els botons verds amb una creu de color negre per apropar; al botó verd amb un guió per allunyar la imatge; o en les fletxes verdes per a mapes adjacents.


METAR-TAF: